Time;durP1;ratioP1;P1;durP2;ratioP2;P2;SDS_P1;SDS_P2;PMS_P1;PMS_P2;Temp;Humidity;BMP_temperature;BMP_pressure;BME280_temperature;BME280_humidity;BME280_pressure;Samples;Min_cycle;Max_cycle;Signal;HPM_P1;HPM_P2
2021/09/12 00:01:38;;;;;;;3.53;3.30;;;18.00;99.90;;;;;;6143467;23;20487;-87
2021/09/12 00:04:22;;;;;;;2.90;2.70;;;18.00;99.90;;;;;;6164055;23;20416;-86
2021/09/12 00:07:07;;;;;;;2.93;2.63;;;17.90;99.90;;;;;;6140661;23;20364;-89
2021/09/12 00:09:51;;;;;;;2.78;2.58;;;18.00;99.90;;;;;;6139301;23;20368;-87
2021/09/12 00:12:38;;;;;;;3.33;2.90;;;17.90;99.90;;;;;;6161032;23;20384;-88
2021/09/12 00:15:22;;;;;;;2.85;2.65;;;17.90;99.90;;;;;;6142079;23;20385;-86
2021/09/12 00:18:06;;;;;;;2.78;2.58;;;17.90;99.90;;;;;;6141416;23;20380;-90
2021/09/12 00:20:50;;;;;;;2.53;2.33;;;17.90;99.90;;;;;;6142142;23;20396;-86
2021/09/12 00:23:35;;;;;;;1.80;1.70;;;17.70;99.90;;;;;;6127780;23;20389;-88
2021/09/12 00:26:19;;;;;;;1.85;1.65;;;17.70;99.90;;;;;;6142616;23;20347;-85
2021/09/12 00:29:05;;;;;;;2.38;1.77;;;17.70;99.90;;;;;;6143524;23;20337;-88
2021/09/12 00:31:49;;;;;;;2.35;2.15;;;17.70;99.90;;;;;;6164379;23;20372;-88
2021/09/12 00:34:33;;;;;;;1.90;1.80;;;17.50;99.90;;;;;;6162649;23;20389;-86
2021/09/12 00:37:19;;;;;;;1.70;1.60;;;17.70;99.90;;;;;;6142940;23;20376;-86
2021/09/12 00:40:07;;;;;;;1.60;1.50;;;17.60;99.90;;;;;;6143677;23;20388;-86
2021/09/12 00:42:51;;;;;;;2.00;1.90;;;17.60;99.90;;;;;;6143363;23;20388;-89
2021/09/12 00:45:36;;;;;;;1.60;1.50;;;17.60;99.90;;;;;;6140881;23;20468;-91
2021/09/12 00:48:20;;;;;;;1.67;1.58;;;17.60;99.90;;;;;;6144021;23;20668;-88
2021/09/12 00:51:04;;;;;;;1.80;1.70;;;17.50;99.90;;;;;;6144401;23;20373;-87
2021/09/12 00:53:49;;;;;;;1.63;1.52;;;17.40;99.90;;;;;;6142045;23;20353;-91
2021/09/12 00:56:41;;;;;;;3.00;2.80;;;17.40;99.90;;;;;;6144135;23;20376;-86
2021/09/12 00:59:26;;;;;;;3.10;2.80;;;17.60;99.90;;;;;;6143222;23;20383;-90
2021/09/12 01:02:11;;;;;;;2.35;2.20;;;17.40;99.90;;;;;;6144419;23;20372;-85
2021/09/12 01:04:55;;;;;;;2.00;1.90;;;17.40;99.90;;;;;;6161739;23;20368;-88
2021/09/12 01:07:40;;;;;;;2.00;1.90;;;17.40;99.90;;;;;;6162766;23;21187;-88
2021/09/12 01:10:25;;;;;;;2.08;1.98;;;17.40;99.90;;;;;;6142599;23;20377;-86
2021/09/12 01:13:09;;;;;;;2.23;2.07;;;17.40;99.90;;;;;;6140961;23;20396;-84
2021/09/12 01:15:53;;;;;;;2.28;2.08;;;17.30;99.90;;;;;;6142931;23;20441;-87
2021/09/12 01:18:39;;;;;;;2.00;1.90;;;17.20;99.90;;;;;;6142386;23;20384;-86
2021/09/12 01:21:24;;;;;;;1.95;1.83;;;17.20;99.90;;;;;;6141724;23;20360;-88
2021/09/12 01:24:11;;;;;;;1.60;1.50;;;17.20;99.90;;;;;;6164003;23;20383;-87
2021/09/12 01:26:57;;;;;;;2.00;1.90;;;17.20;99.90;;;;;;6142402;23;20416;-91
2021/09/12 01:29:42;;;;;;;1.60;1.50;;;17.20;99.90;;;;;;6142843;23;20368;-87
2021/09/12 01:32:26;;;;;;;1.75;1.65;;;17.10;99.90;;;;;;6142644;23;20381;-87
2021/09/12 01:35:11;;;;;;;1.60;1.50;;;17.10;99.90;;;;;;6144568;23;20408;-86
2021/09/12 01:37:55;;;;;;;3.22;1.90;;;17.10;99.90;;;;;;6143535;23;20352;-92
2021/09/12 01:40:40;;;;;;;2.08;1.98;;;17.10;99.90;;;;;;6144039;23;20434;-88
2021/09/12 01:43:25;;;;;;;2.50;2.30;;;17.10;99.90;;;;;;6140268;23;20372;-87
2021/09/12 01:46:10;;;;;;;3.35;2.65;;;17.00;99.90;;;;;;6143897;23;20360;-88
2021/09/12 01:48:56;;;;;;;1.90;1.80;;;16.90;99.90;;;;;;6143044;23;20356;-89
2021/09/12 01:51:41;;;;;;;1.95;1.85;;;16.80;99.90;;;;;;6140634;23;20442;-89
2021/09/12 01:54:25;;;;;;;1.83;1.73;;;16.80;99.90;;;;;;6142798;23;20359;-86
2021/09/12 01:57:10;;;;;;;2.00;1.80;;;16.80;99.90;;;;;;6143491;23;20379;-87
2021/09/12 01:59:54;;;;;;;2.08;1.98;;;16.80;99.90;;;;;;6140347;23;20384;-88
2021/09/12 02:02:39;;;;;;;2.00;1.90;;;16.80;99.90;;;;;;6162221;23;20380;-88
2021/09/12 02:05:26;;;;;;;1.98;1.83;;;16.70;99.90;;;;;;6162224;23;20429;-88
2021/09/12 02:08:10;;;;;;;2.05;1.95;;;16.70;99.90;;;;;;6180729;23;20404;-84
2021/09/12 02:10:55;;;;;;;2.53;2.28;;;16.70;99.90;;;;;;6160794;23;20465;-86
2021/09/12 02:13:39;;;;;;;1.75;1.65;;;16.60;99.90;;;;;;6139735;23;20368;-87
2021/09/12 02:16:24;;;;;;;2.20;2.10;;;16.50;99.90;;;;;;6138856;23;20388;-85
2021/09/12 02:19:09;;;;;;;1.65;1.55;;;16.60;99.90;;;;;;6116878;23;20435;-90
2021/09/12 02:21:53;;;;;;;1.83;1.73;;;16.50;99.90;;;;;;6159935;23;20438;-88
2021/09/12 02:24:37;;;;;;;1.92;1.73;;;16.50;99.90;;;;;;6137528;23;20377;-89
2021/09/12 02:27:22;;;;;;;2.25;1.90;;;16.50;99.90;;;;;;6137796;23;20394;-88
2021/09/12 02:30:07;;;;;;;2.10;2.00;;;16.40;99.90;;;;;;6138285;23;20364;-86
2021/09/12 02:32:51;;;;;;;2.57;2.40;;;16.40;99.90;;;;;;6141727;23;20392;-85
2021/09/12 02:35:35;;;;;;;2.37;2.20;;;16.40;99.90;;;;;;6139920;23;20389;-84
2021/09/12 02:38:20;;;;;;;2.40;2.20;;;16.40;99.90;;;;;;6141475;23;20376;-85
2021/09/12 02:41:04;;;;;;;2.20;2.10;;;16.30;99.90;;;;;;6141318;23;20364;-85
2021/09/12 02:43:48;;;;;;;1.97;1.87;;;16.20;99.90;;;;;;6141193;23;20368;-89
2021/09/12 02:46:33;;;;;;;2.10;2.00;;;16.20;99.90;;;;;;6140966;23;20368;-84
2021/09/12 02:49:17;;;;;;;4.67;1.90;;;16.10;99.90;;;;;;6141698;23;20379;-86
2021/09/12 02:52:02;;;;;;;1.83;1.73;;;16.10;99.90;;;;;;6140158;23;20443;-84
2021/09/12 02:54:46;;;;;;;2.38;2.25;;;16.10;99.90;;;;;;6159565;23;20372;-88
2021/09/12 02:57:30;;;;;;;2.05;1.95;;;16.10;99.90;;;;;;6140281;23;20380;-85
2021/09/12 03:00:15;;;;;;;1.80;1.70;;;16.10;99.90;;;;;;6142101;23;20400;-84
2021/09/12 03:02:59;;;;;;;1.70;1.60;;;16.10;99.90;;;;;;6160946;23;20440;-90
2021/09/12 03:05:44;;;;;;;2.10;2.00;;;16.10;99.90;;;;;;6139689;23;20427;-83
2021/09/12 03:08:28;;;;;;;2.15;2.00;;;16.10;99.90;;;;;;6142066;23;20352;-86
2021/09/12 03:11:13;;;;;;;2.00;1.90;;;16.10;99.90;;;;;;6143773;23;20380;-85
2021/09/12 03:13:58;;;;;;;2.27;2.13;;;16.00;99.90;;;;;;6161600;23;20429;-90
2021/09/12 03:16:42;;;;;;;1.88;1.77;;;16.00;99.90;;;;;;6141850;23;20364;-85
2021/09/12 03:19:27;;;;;;;2.00;1.90;;;15.90;99.90;;;;;;6142982;23;20450;-90
2021/09/12 03:22:11;;;;;;;2.10;2.00;;;15.90;99.90;;;;;;6143176;23;20361;-87
2021/09/12 03:24:55;;;;;;;1.80;1.70;;;15.90;99.90;;;;;;6140195;23;20384;-88
2021/09/12 03:27:39;;;;;;;2.50;2.30;;;15.90;99.90;;;;;;6140606;23;20431;-87
2021/09/12 03:30:24;;;;;;;2.33;2.17;;;15.90;99.90;;;;;;6142116;23;20393;-86
2021/09/12 03:33:08;;;;;;;2.00;1.90;;;15.70;99.90;;;;;;6162268;23;20383;-88
2021/09/12 03:35:53;;;;;;;2.25;1.92;;;15.70;99.90;;;;;;6140930;23;20402;-85
2021/09/12 03:38:37;;;;;;;2.22;2.03;;;15.80;99.90;;;;;;6138145;23;20426;-87
2021/09/12 03:41:21;;;;;;;2.30;2.10;;;15.70;99.90;;;;;;6140405;23;20425;-86
2021/09/12 03:44:06;;;;;;;2.55;2.35;;;15.80;99.90;;;;;;6140347;23;20463;-82
2021/09/12 03:46:50;;;;;;;1.90;1.80;;;15.80;99.90;;;;;;6138505;23;20373;-89
2021/09/12 03:49:34;;;;;;;2.38;2.17;;;15.70;99.90;;;;;;6138495;23;20782;-87
2021/09/12 03:52:18;;;;;;;2.78;2.58;;;15.70;99.90;;;;;;6137774;23;20380;-88
2021/09/12 03:55:04;;;;;;;2.50;2.30;;;15.60;99.90;;;;;;6140598;23;20380;-84
2021/09/12 03:57:49;;;;;;;2.00;1.90;;;15.60;99.90;;;;;;6139185;23;20392;-84
2021/09/12 04:00:33;;;;;;;2.20;1.95;;;15.60;99.90;;;;;;6142331;23;20415;-88
2021/09/12 04:03:18;;;;;;;2.78;2.58;;;15.60;99.90;;;;;;6136970;23;20457;-84
2021/09/12 04:06:03;;;;;;;1.98;1.88;;;15.50;99.90;;;;;;6180393;23;20384;-87
2021/09/12 04:08:47;;;;;;;2.35;2.22;;;15.50;99.90;;;;;;6138240;23;20376;-84
2021/09/12 04:11:32;;;;;;;2.13;2.03;;;15.50;99.90;;;;;;6138708;23;20441;-88
2021/09/12 04:14:16;;;;;;;2.13;2.03;;;15.50;99.90;;;;;;6158980;23;20372;-84
2021/09/12 04:17:01;;;;;;;2.47;2.28;;;15.50;99.90;;;;;;6136399;23;20404;-89
2021/09/12 04:19:46;;;;;;;1.90;1.80;;;15.50;99.90;;;;;;6133400;23;20376;-85
2021/09/12 04:22:30;;;;;;;2.10;2.00;;;15.50;99.90;;;;;;6116775;23;20372;-87
2021/09/12 04:25:15;;;;;;;2.22;2.03;;;15.50;99.90;;;;;;6136974;23;20372;-89
2021/09/12 04:27:59;;;;;;;1.83;1.73;;;15.50;99.90;;;;;;6158801;23;20392;-86
2021/09/12 04:30:44;;;;;;;2.40;2.20;;;15.50;99.90;;;;;;6137855;23;20364;-87
2021/09/12 04:33:28;;;;;;;2.30;2.10;;;15.50;99.90;;;;;;6179616;23;20376;-86
2021/09/12 04:36:13;;;;;;;2.35;2.25;;;15.50;99.90;;;;;;6139430;23;20424;-89
2021/09/12 04:38:57;;;;;;;2.95;2.75;;;15.50;99.90;;;;;;6180289;23;20441;-83
2021/09/12 04:41:42;;;;;;;2.72;2.53;;;15.60;99.90;;;;;;6137636;23;20418;-89
2021/09/12 04:44:27;;;;;;;2.72;2.53;;;15.50;99.90;;;;;;6151622;23;20372;-86
2021/09/12 04:47:11;;;;;;;2.88;2.67;;;15.60;99.90;;;;;;6130594;23;20403;-84
2021/09/12 04:49:55;;;;;;;3.17;2.88;;;15.60;99.90;;;;;;6130855;23;20372;-86
2021/09/12 04:52:40;;;;;;;2.70;2.50;;;15.60;99.90;;;;;;6129798;23;20384;-83
2021/09/12 04:55:24;;;;;;;3.63;3.22;;;15.60;99.90;;;;;;6151272;23;20364;-86
2021/09/12 04:58:09;;;;;;;3.27;3.07;;;15.70;99.90;;;;;;6131416;23;20403;-83
2021/09/12 05:00:53;;;;;;;3.60;3.30;;;15.70;99.90;;;;;;6130432;23;20369;-87
2021/09/12 05:03:37;;;;;;;3.25;2.80;;;15.80;99.90;;;;;;6151858;23;20376;-89
2021/09/12 05:06:22;;;;;;;3.63;3.33;;;15.90;99.90;;;;;;6131103;23;20399;-86
2021/09/12 05:09:06;;;;;;;3.80;3.50;;;15.90;99.90;;;;;;6130905;23;20388;-86
2021/09/12 05:11:50;;;;;;;3.13;2.88;;;15.90;99.90;;;;;;6129622;23;20437;-88
2021/09/12 05:14:35;;;;;;;2.25;2.08;;;16.00;99.90;;;;;;6132230;23;20371;-86
2021/09/12 05:17:19;;;;;;;3.20;3.00;;;16.10;99.90;;;;;;6131455;23;20376;-85
2021/09/12 05:20:04;;;;;;;2.95;2.67;;;16.10;99.90;;;;;;6128167;23;20377;-84
2021/09/12 05:22:49;;;;;;;3.15;2.85;;;16.20;99.90;;;;;;6149170;23;20921;-87
2021/09/12 05:25:33;;;;;;;2.33;2.22;;;16.20;99.90;;;;;;6128093;23;20380;-86
2021/09/12 05:28:18;;;;;;;3.45;3.15;;;16.30;99.90;;;;;;6149989;23;20415;-85
2021/09/12 05:31:02;;;;;;;3.33;3.03;;;16.30;99.90;;;;;;6127489;23;20893;-86
2021/09/12 05:33:47;;;;;;;2.55;2.35;;;16.40;99.90;;;;;;6127834;23;20363;-88
2021/09/12 05:36:31;;;;;;;2.58;2.42;;;16.50;99.90;;;;;;6148820;23;20368;-85
2021/09/12 05:39:15;;;;;;;4.03;3.72;;;16.50;99.90;;;;;;6128098;23;20372;-87
2021/09/12 05:42:00;;;;;;;3.50;3.20;;;16.60;99.90;;;;;;6133044;23;20376;-84
2021/09/12 05:44:44;;;;;;;2.92;2.72;;;16.60;99.90;;;;;;6152402;23;20513;-88
2021/09/12 05:47:29;;;;;;;3.20;2.90;;;16.60;99.90;;;;;;6151357;23;20392;-87
2021/09/12 05:50:13;;;;;;;3.45;2.95;;;16.60;99.90;;;;;;6130472;23;20340;-84
2021/09/12 05:53:03;;;;;;;4.03;3.67;;;16.70;99.90;;;;;;6130700;23;20376;-86
2021/09/12 05:55:48;;;;;;;3.88;3.58;;;16.70;99.90;;;;;;6150197;23;20434;-84
2021/09/12 05:58:32;;;;;;;4.13;3.73;;;16.60;99.90;;;;;;6149135;23;20415;-87
2021/09/12 06:01:16;;;;;;;3.47;3.17;;;16.60;99.90;;;;;;6129915;23;20372;-85
2021/09/12 06:04:01;;;;;;;2.65;2.45;;;16.50;99.90;;;;;;6129305;23;20371;-86
2021/09/12 06:06:45;;;;;;;3.40;3.10;;;16.70;99.90;;;;;;6128239;23;20385;-87
2021/09/12 06:09:30;;;;;;;3.33;3.03;;;16.70;99.90;;;;;;6129578;23;20498;-86
2021/09/12 06:12:14;;;;;;;3.10;2.83;;;16.70;99.90;;;;;;6129885;23;20381;-85
2021/09/12 06:14:58;;;;;;;2.80;2.60;;;16.80;99.90;;;;;;6149240;23;20369;-83
2021/09/12 06:17:43;;;;;;;2.63;2.42;;;16.90;99.90;;;;;;6128345;23;21066;-83
2021/09/12 06:20:27;;;;;;;3.40;2.92;;;17.10;99.90;;;;;;6148987;23;20372;-86
2021/09/12 06:23:11;;;;;;;2.92;2.72;;;17.10;99.90;;;;;;6128277;23;20392;-89
2021/09/12 06:25:56;;;;;;;4.32;3.97;;;17.20;99.90;;;;;;6149419;23;21029;-85
2021/09/12 06:28:40;;;;;;;4.17;3.77;;;17.20;99.90;;;;;;6128930;23;20368;-87
2021/09/12 06:31:25;;;;;;;3.88;3.00;;;17.20;99.90;;;;;;6126893;23;20379;-87
2021/09/12 06:34:10;;;;;;;3.97;3.67;;;17.30;99.90;;;;;;6149223;23;20360;-84
2021/09/12 06:36:56;;;;;;;2.70;2.50;;;17.40;99.90;;;;;;6127550;23;20393;-84
2021/09/12 06:39:40;;;;;;;3.20;2.97;;;17.50;99.90;;;;;;6129017;23;20367;-84
2021/09/12 06:42:25;;;;;;;3.50;3.20;;;17.50;99.90;;;;;;6148082;23;20373;-88
2021/09/12 06:45:10;;;;;;;3.95;3.50;;;17.70;99.90;;;;;;6128970;23;20419;-86
2021/09/12 06:47:54;;;;;;;2.58;2.40;;;17.70;99.90;;;;;;6149277;23;20364;-88
2021/09/12 06:50:39;;;;;;;4.72;4.22;;;17.80;99.90;;;;;;6127178;23;20396;-86
2021/09/12 06:53:24;;;;;;;4.47;4.07;;;17.90;99.90;;;;;;6148604;23;20404;-88
2021/09/12 06:56:09;;;;;;;3.72;3.42;;;18.00;99.90;;;;;;6126549;23;20806;-89
2021/09/12 06:58:53;;;;;;;3.50;3.30;;;18.10;99.90;;;;;;6151957;23;20400;-84
2021/09/12 07:01:37;;;;;;;6.73;4.27;;;18.10;99.90;;;;;;6129977;23;20874;-86
2021/09/12 07:04:21;;;;;;;3.83;3.43;;;18.10;99.90;;;;;;6129614;23;20427;-86
2021/09/12 07:07:06;;;;;;;3.50;3.20;;;18.20;99.90;;;;;;6126974;23;20409;-88
2021/09/12 07:09:50;;;;;;;3.63;3.33;;;18.40;99.90;;;;;;6127688;23;20443;-83
2021/09/12 07:12:34;;;;;;;4.00;3.70;;;18.40;99.90;;;;;;6126338;23;20436;-86
2021/09/12 07:15:19;;;;;;;3.97;3.67;;;18.50;99.90;;;;;;6126031;23;20369;-86
2021/09/12 07:18:03;;;;;;;3.83;3.53;;;18.50;99.90;;;;;;6127049;23;20418;-89
2021/09/12 07:20:48;;;;;;;3.53;3.22;;;18.60;99.90;;;;;;6147809;23;20376;-85
2021/09/12 07:23:32;;;;;;;4.68;3.92;;;18.70;99.90;;;;;;6126751;23;20371;-85
2021/09/12 07:26:16;;;;;;;3.72;3.42;;;18.80;99.90;;;;;;6126177;23;20513;-87
2021/09/12 07:29:01;;;;;;;4.10;3.67;;;19.00;99.90;;;;;;6127464;23;20909;-84
2021/09/12 07:31:45;;;;;;;5.13;4.55;;;19.10;99.90;;;;;;6126615;23;20423;-83
2021/09/12 07:34:29;;;;;;;3.72;3.42;;;19.20;99.90;;;;;;6170427;23;20452;-86
2021/09/12 07:37:14;;;;;;;3.87;3.57;;;19.30;99.90;;;;;;6127444;23;20406;-83
2021/09/12 07:39:58;;;;;;;3.85;3.55;;;19.40;99.90;;;;;;6128098;23;20396;-88
2021/09/12 07:42:46;;;;;;;5.03;3.95;;;19.50;99.90;;;;;;6148998;23;20396;-84
2021/09/12 07:45:31;;;;;;;4.05;3.72;;;19.60;99.90;;;;;;6126343;23;20448;-84
2021/09/12 07:48:15;;;;;;;4.68;4.28;;;19.60;99.90;;;;;;6127290;23;20418;-83
2021/09/12 07:50:59;;;;;;;4.32;4.03;;;19.70;99.90;;;;;;6127687;23;20404;-87
2021/09/12 07:53:43;;;;;;;3.97;3.67;;;19.80;99.90;;;;;;6127809;23;20375;-86
2021/09/12 07:56:28;;;;;;;3.63;3.33;;;19.80;99.90;;;;;;6127806;23;20361;-86
2021/09/12 07:59:12;;;;;;;3.65;3.35;;;20.00;99.90;;;;;;6125786;23;20420;-85
2021/09/12 08:01:57;;;;;;;4.18;3.78;;;20.10;99.90;;;;;;6127575;23;20381;-85
2021/09/12 08:04:41;;;;;;;3.28;3.05;;;20.30;99.90;;;;;;6129072;23;20441;-88
2021/09/12 08:07:27;;;;;;;4.30;3.90;;;20.40;99.90;;;;;;6128236;23;20430;-88
2021/09/12 08:10:11;;;;;;;5.37;4.87;;;20.50;99.90;;;;;;6146492;23;20364;-87
2021/09/12 08:12:56;;;;;;;4.20;3.80;;;20.70;99.90;;;;;;6129986;23;20377;-87
2021/09/12 08:15:40;;;;;;;3.70;3.40;;;20.80;99.90;;;;;;6153712;23;20357;-86
2021/09/12 08:18:24;;;;;;;4.57;3.85;;;20.90;99.90;;;;;;6131586;23;20376;-92
2021/09/12 08:21:10;;;;;;;3.33;3.10;;;21.00;99.90;;;;;;6129366;23;20396;-89
2021/09/12 08:23:55;;;;;;;4.22;3.83;;;21.00;99.90;;;;;;6131539;23;20446;-91
2021/09/12 08:26:39;;;;;;;4.72;4.32;;;21.00;99.90;;;;;;6130582;23;20496;-86
2021/09/12 08:29:23;;;;;;;4.72;4.28;;;21.00;99.90;;;;;;6132865;23;20678;-88
2021/09/12 08:32:08;;;;;;;3.92;3.60;;;21.00;99.90;;;;;;6150338;23;20380;-86
2021/09/12 08:34:53;;;;;;;3.05;2.85;;;21.00;99.90;;;;;;6148489;23;20376;-86
2021/09/12 08:37:37;;;;;;;6.22;3.67;;;21.20;99.90;;;;;;6127828;23;20364;-87
2021/09/12 08:40:22;;;;;;;3.95;3.15;;;21.40;99.90;;;;;;6130028;23;20364;-82
2021/09/12 08:43:09;;;;;;;3.23;2.90;;;21.60;99.90;;;;;;6128324;23;20426;-87
2021/09/12 08:45:56;;;;;;;2.83;2.63;;;21.70;99.90;;;;;;6111450;23;20352;-83
2021/09/12 08:48:41;;;;;;;3.83;3.42;;;21.90;99.90;;;;;;6152467;23;20417;-84
2021/09/12 08:51:25;;;;;;;3.03;2.83;;;22.00;99.90;;;;;;6129311;23;20393;-91
2021/09/12 08:54:09;;;;;;;2.93;2.73;;;22.00;99.90;;;;;;6149229;23;20375;-85
2021/09/12 08:56:54;;;;;;;3.25;2.97;;;22.20;99.90;;;;;;6148613;23;20405;-84
2021/09/12 08:59:38;;;;;;;3.95;3.60;;;22.40;99.90;;;;;;6147574;23;20376;-84
2021/09/12 09:02:26;;;;;;;4.22;3.88;;;22.40;99.90;;;;;;6126265;23;22266;-84
2021/09/12 09:05:11;;;;;;;4.03;3.73;;;22.40;99.90;;;;;;6148365;23;20416;-87
2021/09/12 09:08:07;;;;;;;4.35;3.95;;;22.50;99.90;;;;;;6126445;23;20451;-82
2021/09/12 09:10:52;;;;;;;4.72;4.18;;;22.50;99.90;;;;;;6186066;23;20369;-83
2021/09/12 09:13:37;;;;;;;3.37;3.17;;;22.70;99.90;;;;;;6120357;23;20380;-91
2021/09/12 09:16:28;;;;;;;3.70;3.40;;;22.90;99.90;;;;;;6144368;23;20393;-81
2021/09/12 09:19:13;;;;;;;4.53;3.47;;;22.90;99.90;;;;;;6123492;23;20364;-86
2021/09/12 09:21:57;;;;;;;3.20;2.70;;;23.00;99.90;;;;;;6104689;23;20484;-88
2021/09/12 09:24:41;;;;;;;3.20;2.90;;;23.10;99.90;;;;;;6169314;23;20384;-86
2021/09/12 09:27:26;;;;;;;3.38;3.10;;;23.20;99.90;;;;;;6149608;23;20360;-89
2021/09/12 09:30:10;;;;;;;3.95;3.50;;;23.30;99.90;;;;;;6152366;23;20377;-89
2021/09/12 09:33:14;;;;;;;3.20;3.00;;;23.10;99.90;;;;;;6130266;23;20387;-88
2021/09/12 09:36:04;;;;;;;3.58;3.00;;;23.00;99.90;;;;;;6149511;23;20476;-85
2021/09/12 09:38:48;;;;;;;5.50;3.20;;;23.10;99.90;;;;;;6170944;23;20368;-84
2021/09/12 09:41:37;;;;;;;4.47;3.90;;;23.30;99.90;;;;;;6148283;23;20786;-85
2021/09/12 09:44:23;;;;;;;3.90;3.60;;;23.50;99.90;;;;;;6149950;23;20381;-84
2021/09/12 09:47:10;;;;;;;5.53;3.77;;;23.70;99.90;;;;;;6134057;23;20426;-88
2021/09/12 09:50:04;;;;;;;3.27;2.97;;;23.80;99.90;;;;;;6152625;23;20396;-89
2021/09/12 09:52:51;;;;;;;3.70;3.40;;;23.80;99.90;;;;;;6143869;23;20382;-88
2021/09/12 09:55:36;;;;;;;3.58;3.28;;;23.70;99.90;;;;;;6143002;23;20483;-90
2021/09/12 09:58:20;;;;;;;2.83;2.53;;;23.90;99.90;;;;;;6102569;23;20377;-90
2021/09/12 10:01:05;;;;;;;4.93;3.33;;;24.10;99.90;;;;;;6102948;23;20397;-91
2021/09/12 10:03:49;;;;;;;2.80;2.60;;;24.30;99.90;;;;;;6122858;23;20485;-87
2021/09/12 10:06:33;;;;;;;2.37;2.27;;;24.40;99.90;;;;;;6101257;23;20373;-90
2021/09/12 10:09:18;;;;;;;3.10;2.70;;;24.60;99.90;;;;;;6071337;23;20394;-83
2021/09/12 10:12:03;;;;;;;2.47;2.27;;;24.80;99.90;;;;;;6104552;23;20394;-84
2021/09/12 10:14:52;;;;;;;2.65;2.45;;;24.70;99.90;;;;;;6107926;23;20441;-88
2021/09/12 10:17:37;;;;;;;2.63;2.42;;;24.50;99.90;;;;;;6108185;23;20374;-85
2021/09/12 10:20:28;;;;;;;2.20;2.10;;;24.40;99.90;;;;;;6085405;23;20920;-86
2021/09/12 10:23:12;;;;;;;2.13;2.03;;;24.90;99.90;;;;;;6088574;23;20378;-90
2021/09/12 10:26:00;;;;;;;1.90;1.80;;;25.00;99.90;;;;;;6111970;23;20381;-86
2021/09/12 10:28:44;;;;;;;1.85;1.75;;;24.90;99.90;;;;;;6112991;23;20387;-88
2021/09/12 10:31:31;;;;;;;3.45;1.92;;;24.90;99.90;;;;;;6092971;23;20433;-90
2021/09/12 10:34:15;;;;;;;1.88;1.77;;;25.30;99.90;;;;;;6090497;23;20425;-90
2021/09/12 10:37:00;;;;;;;2.15;1.95;;;25.30;99.90;;;;;;6092051;23;20429;-86
2021/09/12 10:39:51;;;;;;;1.70;1.60;;;25.10;99.90;;;;;;6132900;23;20378;-86
2021/09/12 10:42:42;;;;;;;1.70;1.60;;;24.90;99.90;;;;;;6094059;23;20374;-89
2021/09/12 10:45:26;;;;;;;1.73;1.63;;;24.50;99.90;;;;;;6113957;23;20934;-89
2021/09/12 10:48:18;;;;;;;1.33;1.23;;;24.40;99.90;;;;;;6093737;23;20369;-87
2021/09/12 10:51:06;;;;;;;1.25;1.15;;;24.60;99.90;;;;;;6128183;23;20400;-87
2021/09/12 10:53:59;;;;;;;1.73;1.63;;;24.80;99.90;;;;;;6145457;23;20462;-88
2021/09/12 10:56:44;;;;;;;2.35;1.80;;;24.70;99.90;;;;;;6162143;23;20368;-85
2021/09/12 10:59:28;;;;;;;1.65;1.55;;;24.60;99.90;;;;;;6123013;23;20653;-88
2021/09/12 11:02:15;;;;;;;1.73;1.63;;;25.00;99.90;;;;;;6144679;23;20455;-82
2021/09/12 11:05:24;;;;;;;1.92;1.73;;;25.40;99.90;;;;;;6122314;23;20361;-86
2021/09/12 11:08:08;;;;;;;1.83;1.55;;;25.80;99.90;;;;;;6145860;23;20364;-87
2021/09/12 11:10:54;;;;;;;1.70;1.60;;;26.20;99.90;;;;;;6144917;23;20407;-88
2021/09/12 11:13:39;;;;;;;1.40;1.30;;;26.70;99.90;;;;;;6147668;23;20384;-83
2021/09/12 11:16:24;;;;;;;1.70;1.60;;;27.00;99.90;;;;;;6127191;23;20380;-85
2021/09/12 11:19:09;;;;;;;1.80;1.70;;;27.20;99.90;;;;;;6146000;23;20400;-82
2021/09/12 11:21:54;;;;;;;1.60;1.50;;;27.30;99.90;;;;;;6126467;23;20368;-85
2021/09/12 11:24:38;;;;;;;1.30;1.30;;;27.30;99.90;;;;;;6152080;23;20798;-83
2021/09/12 11:27:27;;;;;;;1.48;1.38;;;27.40;99.90;;;;;;6146322;23;20433;-82
2021/09/12 11:30:15;;;;;;;2.03;1.90;;;27.70;99.90;;;;;;6170146;23;20420;-82
2021/09/12 11:33:03;;;;;;;1.70;1.60;;;27.50;99.90;;;;;;6152199;23;20450;-86
2021/09/12 11:36:21;;;;;;;1.92;1.83;;;27.50;99.90;;;;;;6172739;23;20424;-83
2021/09/12 11:39:11;;;;;;;1.75;1.65;;;27.90;99.90;;;;;;6143037;23;20376;-81
2021/09/12 11:42:17;;;;;;;1.30;1.30;;;28.10;99.90;;;;;;6149108;23;20364;-80
2021/09/12 11:45:58;;;;;;;1.80;1.70;;;28.60;99.90;;;;;;6158371;23;20435;-82
2021/09/12 11:50:03;;;;;;;1.60;1.50;;;28.80;99.90;;;;;;6198914;23;20365;-81
2021/09/12 11:54:00;;;;;;;1.92;1.83;;;29.40;99.90;;;;;;6188559;23;20400;-79
2021/09/12 11:57:36;;;;;;;1.70;1.60;;;29.00;99.90;;;;;;6112416;23;20382;-84
2021/09/12 12:01:13;;;;;;;1.80;1.70;;;28.80;99.90;;;;;;6117850;23;20414;-82
2021/09/12 12:04:32;;;;;;;1.42;1.33;;;28.80;99.90;;;;;;6139955;23;20409;-79
2021/09/12 12:08:17;;;;;;;1.45;1.35;;;29.10;99.90;;;;;;6130612;23;20468;-80
2021/09/12 12:11:52;;;;;;;1.83;1.70;;;29.60;99.90;;;;;;6123197;23;20425;-82
2021/09/12 12:16:11;;;;;;;1.60;1.50;;;29.40;99.90;;;;;;6129426;23;20764;-81
2021/09/12 12:19:57;;;;;;;1.70;1.60;;;29.50;99.90;;;;;;6128676;23;20386;-82
2021/09/12 12:23:34;;;;;;;1.58;1.48;;;30.00;99.90;;;;;;6155907;23;20381;-81
2021/09/12 12:27:21;;;;;;;1.50;1.40;;;29.80;99.90;;;;;;6143351;23;20386;-80
2021/09/12 12:35:38;;;;;;;1.60;1.50;;;30.20;99.90;;;;;;6174770;23;20361;-80
2021/09/12 13:41:37;;;;;;;1.20;1.20;;;30.40;99.60;;;;;;6197078;22;20395;-80
2021/09/12 13:45:01;;;;;;;2.17;1.80;;;30.30;99.90;;;;;;6166187;23;20377;-81
2021/09/12 13:51:17;;;;;;;1.73;1.63;;;29.40;99.90;;;;;;6202863;22;20976;-79
2021/09/12 13:54:38;;;;;;;1.70;1.60;;;29.20;99.90;;;;;;6174840;22;20360;-80
2021/09/12 13:57:49;;;;;;;1.80;1.70;;;29.10;99.90;;;;;;6167114;22;20529;-81
2021/09/12 14:01:17;;;;;;;1.65;1.55;;;28.80;99.90;;;;;;6219867;23;20404;-83
2021/09/12 14:04:15;;;;;;;2.90;2.60;;;28.90;99.90;;;;;;6212346;23;24395;-81
2021/09/12 14:07:10;;;;;;;1.70;1.60;;;28.60;99.90;;;;;;6137947;22;20414;-87
2021/09/12 14:10:05;;;;;;;1.70;1.48;;;28.40;99.90;;;;;;6210806;23;20364;-86
2021/09/12 14:12:55;;;;;;;1.73;1.63;;;28.30;99.90;;;;;;6188951;23;20375;-89
2021/09/12 14:15:46;;;;;;;3.03;1.95;;;28.30;99.90;;;;;;6212830;23;20380;-86
2021/09/12 14:18:36;;;;;;;1.60;1.50;;;28.10;99.90;;;;;;6206032;23;20374;-88
2021/09/12 14:21:24;;;;;;;1.50;1.40;;;28.10;99.90;;;;;;6202021;23;20404;-90
2021/09/12 14:24:16;;;;;;;1.52;1.42;;;28.00;99.90;;;;;;6209992;23;20366;-90
2021/09/12 14:27:03;;;;;;;1.30;1.30;;;27.90;99.90;;;;;;6209604;23;20371;-89
2021/09/12 14:29:51;;;;;;;1.63;1.53;;;27.90;99.90;;;;;;6184257;23;20378;-87
2021/09/12 14:32:41;;;;;;;1.83;1.73;;;27.90;99.90;;;;;;6189964;23;20406;-86
2021/09/12 14:35:33;;;;;;;1.92;1.83;;;27.90;99.90;;;;;;6168064;23;20359;-87
2021/09/12 14:38:27;;;;;;;3.08;1.85;;;27.60;99.90;;;;;;6149824;23;20411;-89
2021/09/12 14:41:14;;;;;;;2.20;2.00;;;27.50;99.90;;;;;;6164302;22;20422;-88
2021/09/12 14:44:09;;;;;;;1.83;1.73;;;27.60;99.90;;;;;;6214392;23;20367;-86
2021/09/12 14:47:02;;;;;;;2.00;1.88;;;27.70;99.90;;;;;;6217894;22;20370;-88
2021/09/12 14:49:54;;;;;;;2.10;1.90;;;27.80;99.90;;;;;;6199145;23;20374;-90
2021/09/12 14:52:45;;;;;;;2.10;2.00;;;27.60;99.90;;;;;;6215153;22;20387;-87
2021/09/12 14:55:34;;;;;;;2.17;1.90;;;27.60;99.90;;;;;;6185620;23;20394;-84
2021/09/12 14:58:24;;;;;;;1.65;1.55;;;27.60;99.90;;;;;;6190621;22;20369;-91
2021/09/12 15:01:18;;;;;;;1.88;1.60;;;27.30;99.90;;;;;;6214706;23;20371;-87
2021/09/12 15:22:22;;;;;;;1.50;1.40;;;26.30;99.90;;;;;;6227808;22;20451;-93
2021/09/12 15:25:09;;;;;;;2.10;2.00;;;26.30;99.90;;;;;;6152812;23;20375;-91
2021/09/12 15:27:57;;;;;;;1.45;1.40;;;26.10;99.90;;;;;;6168069;23;20422;-91
2021/09/12 15:30:51;;;;;;;2.08;1.90;;;26.10;99.90;;;;;;6185877;23;20402;-91
2021/09/12 15:33:41;;;;;;;1.70;1.60;;;26.00;99.90;;;;;;6135934;23;20402;-90
2021/09/12 15:36:31;;;;;;;1.88;1.77;;;26.00;99.90;;;;;;6186179;23;20358;-89
2021/09/12 15:39:20;;;;;;;1.80;1.70;;;26.00;99.90;;;;;;6144810;23;20406;-91
2021/09/12 15:42:05;;;;;;;1.80;1.70;;;25.80;99.90;;;;;;6165770;23;20369;-89
2021/09/12 15:44:54;;;;;;;1.80;1.70;;;25.70;99.90;;;;;;6190697;23;20451;-90
2021/09/12 15:47:52;;;;;;;1.13;1.13;;;25.70;99.90;;;;;;6155070;23;20874;-90
2021/09/12 15:50:44;;;;;;;1.95;1.85;;;25.70;99.90;;;;;;6170210;23;20354;-92
2021/09/12 15:53:32;;;;;;;2.13;2.03;;;25.70;99.90;;;;;;6144396;23;20403;-90
2021/09/12 15:56:27;;;;;;;1.70;1.60;;;25.40;99.90;;;;;;6184444;23;20371;-91
2021/09/12 15:59:12;;;;;;;1.90;1.80;;;25.30;99.90;;;;;;6119441;23;20463;-90
2021/09/12 16:01:59;;;;;;;2.13;1.87;;;25.20;99.90;;;;;;6185826;23;20390;-88
2021/09/12 16:04:49;;;;;;;1.48;1.38;;;25.10;99.90;;;;;;6166656;23;20451;-91
2021/09/12 16:07:39;;;;;;;1.30;1.30;;;25.20;99.90;;;;;;6130007;23;20386;-91
2021/09/12 16:10:30;;;;;;;0.90;0.90;;;25.10;99.90;;;;;;6167441;23;20395;-91